Time;durP1;ratioP1;P1;durP2;ratioP2;P2;SDS_P1;SDS_P2;PMS_P1;PMS_P2;Temp;Humidity;BMP_temperature;BMP_pressure;BME280_temperature;BME280_humidity;BME280_pressure;Samples;Min_cycle;Max_cycle;Signal;HPM_P1;HPM_P2
2022/07/16 00:03:04;;;;;;;12.07;5.35;;;;;;;;;;5127171;27;20655;-73
2022/07/16 00:05:35;;;;;;;13.82;5.22;;;;;;;;;;5127258;27;20051;-72
2022/07/16 00:08:06;;;;;;;10.52;5.00;;;;;;;;;;5127165;27;20057;-73
2022/07/16 00:10:36;;;;;;;12.98;5.43;;;;;;;;;;5126982;28;20047;-72
2022/07/16 00:13:06;;;;;;;8.27;5.68;;;;;;;;;;5127569;28;20058;-72
2022/07/16 00:15:36;;;;;;;7.80;4.90;;;;;;;;;;5127395;28;20685;-72
2022/07/16 00:20:54;;;;;;;16.73;5.30;;;;;;;;;;5126497;28;20043;-71
2022/07/16 00:23:25;;;;;;;9.15;5.05;;;;;;;;;;5127348;27;20047;-72
2022/07/16 00:25:55;;;;;;;10.70;5.47;;;;;;;;;;5127479;28;20035;-76
2022/07/16 00:28:25;;;;;;;13.15;5.10;;;;;;;;;;5127232;28;20047;-73
2022/07/16 00:30:55;;;;;;;13.13;4.53;;;;;;;;;;5126899;28;20058;-75
2022/07/16 00:33:25;;;;;;;17.25;5.93;;;;;;;;;;5127659;28;20513;-72
2022/07/16 00:35:55;;;;;;;7.80;5.50;;;;;;;;;;5126612;27;20054;-72
2022/07/16 00:38:25;;;;;;;11.48;4.53;;;;;;;;;;5127330;28;20043;-73
2022/07/16 00:40:54;;;;;;;16.02;5.97;;;;;;;;;;5127262;28;20043;-73
2022/07/16 00:43:24;;;;;;;15.02;5.40;;;;;;;;;;5125433;27;20063;-72
2022/07/16 00:45:54;;;;;;;10.20;5.38;;;;;;;;;;5127186;28;20047;-73
2022/07/16 00:48:31;;;;;;;9.82;4.72;;;;;;;;;;5125017;28;20047;-73
2022/07/16 00:51:01;;;;;;;8.82;4.28;;;;;;;;;;5124905;28;20430;-72
2022/07/16 00:53:31;;;;;;;8.02;4.97;;;;;;;;;;5125853;28;20046;-72
2022/07/16 00:56:00;;;;;;;11.75;6.30;;;;;;;;;;5126190;28;20047;-73
2022/07/16 00:58:30;;;;;;;11.80;5.43;;;;;;;;;;5125996;28;20779;-73
2022/07/16 01:01:00;;;;;;;11.35;5.57;;;;;;;;;;5126382;27;20043;-73
2022/07/16 01:03:31;;;;;;;12.90;8.43;;;;;;;;;;5129202;27;20047;-72
2022/07/16 01:06:02;;;;;;;13.88;8.27;;;;;;;;;;5130295;27;20039;-72
2022/07/16 01:08:35;;;;;;;16.08;7.93;;;;;;;;;;5130703;27;20043;-72
2022/07/16 01:11:07;;;;;;;15.18;8.75;;;;;;;;;;5130937;27;20051;-72
2022/07/16 01:13:42;;;;;;;26.10;11.52;;;;;;;;;;5131383;27;20049;-72
2022/07/16 01:16:13;;;;;;;25.10;12.32;;;;;;;;;;5129449;27;20055;-72
2022/07/16 01:18:44;;;;;;;46.03;20.85;;;;;;;;;;5130639;27;20054;-73
2022/07/16 01:21:16;;;;;;;28.92;14.00;;;;;;;;;;5130648;27;20046;-73
2022/07/16 01:23:49;;;;;;;29.67;12.90;;;;;;;;;;5131236;27;20690;-72
2022/07/16 01:26:19;;;;;;;48.35;9.43;;;;;;;;;;5130504;27;20101;-72
2022/07/16 01:28:49;;;;;;;47.85;12.65;;;;;;;;;;5130583;27;20490;-72
2022/07/16 01:31:19;;;;;;;24.00;12.65;;;;;;;;;;5130022;27;20043;-72
2022/07/16 01:34:24;;;;;;;50.50;12.27;;;;;;;;;;5130794;27;20047;-72
2022/07/16 01:36:39;;;;;;;32.25;10.90;;;;;;;;;;5130315;27;20039;-72
2022/07/16 01:39:09;;;;;;;64.20;31.95;;;;;;;;;;5130028;27;20054;-72
2022/07/16 01:41:38;;;;;;;35.30;19.80;;;;;;;;;;5130426;27;20047;-73
2022/07/16 01:44:08;;;;;;;34.95;18.20;;;;;;;;;;5129994;27;20128;-72
2022/07/16 01:46:38;;;;;;;34.90;19.42;;;;;;;;;;5129813;27;20039;-72
2022/07/16 01:49:08;;;;;;;22.55;12.90;;;;;;;;;;5129853;27;20051;-73
2022/07/16 01:51:37;;;;;;;20.20;11.88;;;;;;;;;;5130148;27;20051;-73
2022/07/16 01:54:07;;;;;;;19.00;11.30;;;;;;;;;;5130762;27;20047;-72
2022/07/16 01:56:37;;;;;;;18.83;11.15;;;;;;;;;;5129777;27;20051;-73
2022/07/16 01:59:07;;;;;;;16.48;10.60;;;;;;;;;;5130024;27;20058;-72
2022/07/16 02:01:37;;;;;;;22.92;9.32;;;;;;;;;;5128434;27;20417;-72
2022/07/16 02:04:08;;;;;;;54.67;11.65;;;;;;;;;;5129841;27;20043;-73
2022/07/16 02:06:38;;;;;;;25.50;11.50;;;;;;;;;;5129840;27;20047;-72
2022/07/16 02:09:08;;;;;;;16.05;10.55;;;;;;;;;;5128760;27;20066;-72
2022/07/16 02:11:38;;;;;;;20.67;11.80;;;;;;;;;;5129278;27;20494;-76
2022/07/16 02:14:08;;;;;;;22.02;11.30;;;;;;;;;;5128856;27;20047;-72
2022/07/16 02:16:37;;;;;;;28.65;11.85;;;;;;;;;;5129881;27;20061;-72
2022/07/16 02:19:08;;;;;;;19.88;11.95;;;;;;;;;;5129657;27;20047;-73
2022/07/16 02:21:38;;;;;;;19.73;11.20;;;;;;;;;;5130244;27;20039;-72
2022/07/16 02:24:07;;;;;;;20.20;11.00;;;;;;;;;;5129521;27;20047;-72
2022/07/16 02:26:37;;;;;;;21.50;9.88;;;;;;;;;;5128759;27;20525;-72
2022/07/16 02:29:07;;;;;;;14.68;7.55;;;;;;;;;;5129227;27;20418;-73
2022/07/16 02:31:40;;;;;;;33.53;9.25;;;;;;;;;;5129261;27;20402;-72
2022/07/16 02:34:10;;;;;;;25.52;8.70;;;;;;;;;;5128818;27;20065;-73
2022/07/16 02:36:40;;;;;;;18.95;11.15;;;;;;;;;;5129605;27;20054;-72
2022/07/16 02:39:10;;;;;;;13.73;9.60;;;;;;;;;;5128303;27;20051;-73
2022/07/16 02:41:39;;;;;;;;;;;;;;;;;;5128566;27;20057;-72
2022/07/16 02:44:09;;;;;;;19.30;9.52;;;;;;;;;;5128809;27;19931;-73
2022/07/16 02:46:39;;;;;;;19.02;10.02;;;;;;;;;;5129122;27;20513;-76
2022/07/16 02:49:08;;;;;;;22.88;11.63;;;;;;;;;;5129010;27;20046;-73
2022/07/16 02:51:38;;;;;;;16.70;9.50;;;;;;;;;;5128581;27;20318;-73
2022/07/16 02:54:08;;;;;;;14.40;9.10;;;;;;;;;;5127809;27;20039;-73
2022/07/16 02:56:38;;;;;;;20.55;11.70;;;;;;;;;;5129147;27;20052;-73
2022/07/16 02:59:08;;;;;;;20.90;11.23;;;;;;;;;;5128859;27;20066;-72
2022/07/16 03:01:37;;;;;;;20.02;10.57;;;;;;;;;;5129252;27;20058;-72
2022/07/16 03:04:07;;;;;;;19.52;10.48;;;;;;;;;;5128875;27;20043;-73
2022/07/16 03:06:38;;;;;;;31.65;13.75;;;;;;;;;;5127348;27;20058;-72
2022/07/16 03:09:08;;;;;;;22.50;11.13;;;;;;;;;;5128661;27;20058;-73
2022/07/16 03:11:39;;;;;;;23.88;13.27;;;;;;;;;;5128363;27;20055;-72
2022/07/16 03:14:09;;;;;;;19.02;11.00;;;;;;;;;;5127942;27;20047;-73
2022/07/16 03:16:38;;;;;;;20.00;11.20;;;;;;;;;;5128614;27;20039;-77
2022/07/16 03:19:08;;;;;;;22.52;11.13;;;;;;;;;;5129248;27;20039;-74
2022/07/16 03:21:38;;;;;;;19.00;11.10;;;;;;;;;;5127421;27;20035;-73
2022/07/16 03:24:08;;;;;;;19.13;9.95;;;;;;;;;;5127937;27;20051;-73
2022/07/16 03:26:37;;;;;;;15.10;8.68;;;;;;;;;;5128106;27;20418;-73
2022/07/16 03:29:07;;;;;;;23.92;11.32;;;;;;;;;;5128271;27;20066;-73
2022/07/16 03:31:37;;;;;;;22.35;13.48;;;;;;;;;;5128039;27;20047;-72
2022/07/16 03:34:07;;;;;;;24.77;12.05;;;;;;;;;;5127688;27;20497;-72
2022/07/16 03:36:36;;;;;;;26.55;13.75;;;;;;;;;;5128086;27;20395;-73
2022/07/16 03:39:06;;;;;;;27.88;14.05;;;;;;;;;;5128257;27;20070;-72
2022/07/16 03:41:37;;;;;;;22.52;12.32;;;;;;;;;;5127898;27;20039;-72
2022/07/16 03:44:09;;;;;;;26.63;13.43;;;;;;;;;;5127484;27;20069;-73
2022/07/16 03:46:40;;;;;;;25.50;14.52;;;;;;;;;;5127621;27;20047;-73
2022/07/16 03:49:11;;;;;;;20.98;12.38;;;;;;;;;;5128255;27;20521;-73
2022/07/16 03:51:41;;;;;;;22.30;11.57;;;;;;;;;;5127825;27;20414;-72
2022/07/16 03:54:11;;;;;;;27.85;12.98;;;;;;;;;;5128023;27;20047;-73
2022/07/16 03:56:41;;;;;;;26.73;13.88;;;;;;;;;;5128396;27;20047;-73
2022/07/16 03:59:11;;;;;;;26.00;12.13;;;;;;;;;;5128060;27;20722;-73
2022/07/16 04:01:40;;;;;;;23.23;13.02;;;;;;;;;;5127561;27;20054;-73
2022/07/16 04:04:10;;;;;;;25.48;13.02;;;;;;;;;;5128078;27;20043;-73
2022/07/16 04:06:41;;;;;;;23.95;11.15;;;;;;;;;;5127752;27;20391;-73
2022/07/16 04:09:10;;;;;;;22.25;11.85;;;;;;;;;;5127645;27;20051;-72
2022/07/16 04:11:41;;;;;;;21.00;11.98;;;;;;;;;;5128028;27;20039;-72
2022/07/16 04:14:11;;;;;;;21.95;13.25;;;;;;;;;;5127518;28;20046;-73
2022/07/16 04:16:41;;;;;;;24.40;13.45;;;;;;;;;;5127482;28;20039;-73
2022/07/16 04:19:12;;;;;;;26.33;12.63;;;;;;;;;;5126907;27;20059;-73
2022/07/16 04:21:42;;;;;;;24.10;12.15;;;;;;;;;;5127483;28;20051;-73
2022/07/16 04:24:12;;;;;;;23.95;11.55;;;;;;;;;;5126415;27;20062;-73
2022/07/16 04:26:41;;;;;;;20.73;11.93;;;;;;;;;;5126399;28;20050;-73
2022/07/16 04:29:11;;;;;;;26.38;12.38;;;;;;;;;;5127311;28;20043;-73
2022/07/16 04:31:41;;;;;;;21.55;10.70;;;;;;;;;;5128079;28;20043;-73
2022/07/16 04:34:11;;;;;;;20.08;11.10;;;;;;;;;;5127678;28;20050;-73
2022/07/16 04:36:41;;;;;;;17.15;9.48;;;;;;;;;;5128847;27;20070;-73
2022/07/16 04:39:11;;;;;;;18.13;9.90;;;;;;;;;;5131760;27;20043;-73
2022/07/16 04:41:40;;;;;;;25.27;10.98;;;;;;;;;;5131356;27;20054;-73
2022/07/16 04:44:10;;;;;;;21.70;10.27;;;;;;;;;;5130994;27;20054;-72
2022/07/16 04:46:40;;;;;;;33.03;10.75;;;;;;;;;;5130918;27;20043;-73
2022/07/16 04:49:10;;;;;;;26.75;9.70;;;;;;;;;;5131615;27;20074;-72
2022/07/16 04:51:39;;;;;;;23.70;10.18;;;;;;;;;;5130841;27;20058;-73
2022/07/16 04:54:10;;;;;;;19.15;8.57;;;;;;;;;;5131301;27;20584;-72
2022/07/16 04:56:40;;;;;;;15.50;8.05;;;;;;;;;;5132187;27;20047;-73
2022/07/16 04:59:10;;;;;;;10.80;7.47;;;;;;;;;;5130194;27;20039;-72
2022/07/16 05:01:39;;;;;;;13.40;8.73;;;;;;;;;;5131392;27;20509;-73
2022/07/16 05:04:09;;;;;;;13.93;8.02;;;;;;;;;;5131442;27;20505;-72
2022/07/16 05:06:39;;;;;;;22.20;8.45;;;;;;;;;;5131018;27;20047;-72
2022/07/16 05:09:09;;;;;;;17.77;7.05;;;;;;;;;;5130606;27;20047;-73
2022/07/16 05:11:39;;;;;;;15.02;7.90;;;;;;;;;;5130846;27;20486;-72
2022/07/16 05:14:08;;;;;;;17.20;9.18;;;;;;;;;;5130170;27;20047;-73
2022/07/16 05:16:38;;;;;;;14.70;8.38;;;;;;;;;;5129653;27;20043;-72
2022/07/16 05:19:08;;;;;;;16.08;7.50;;;;;;;;;;5130749;27;20043;-72
2022/07/16 05:21:38;;;;;;;13.88;6.80;;;;;;;;;;5131129;27;20061;-72
2022/07/16 05:24:08;;;;;;;11.70;6.82;;;;;;;;;;5130570;27;20050;-72
2022/07/16 05:26:37;;;;;;;17.23;6.63;;;;;;;;;;5130786;27;20043;-72
2022/07/16 05:29:07;;;;;;;17.33;7.13;;;;;;;;;;5130327;27;20043;-74
2022/07/16 05:31:37;;;;;;;12.13;6.70;;;;;;;;;;5130291;27;20497;-72
2022/07/16 05:34:07;;;;;;;22.73;5.75;;;;;;;;;;5130432;27;20394;-72
2022/07/16 05:36:36;;;;;;;111.95;8.27;;;;;;;;;;5130866;27;20050;-72
2022/07/16 05:39:06;;;;;;;22.20;5.88;;;;;;;;;;5130291;27;20043;-73
2022/07/16 05:41:36;;;;;;;17.50;5.75;;;;;;;;;;5130210;27;20398;-73
2022/07/16 05:44:06;;;;;;;8.15;5.13;;;;;;;;;;5130586;27;20058;-72
2022/07/16 05:46:36;;;;;;;12.55;5.65;;;;;;;;;;5130401;27;20489;-72
2022/07/16 05:49:06;;;;;;;30.88;6.22;;;;;;;;;;5128558;27;20055;-73
2022/07/16 05:51:35;;;;;;;10.27;5.25;;;;;;;;;;5130424;27;20047;-72
2022/07/16 05:54:05;;;;;;;18.17;6.70;;;;;;;;;;5130378;27;20074;-73
2022/07/16 05:56:35;;;;;;;10.45;6.00;;;;;;;;;;5130031;27;20051;-72
2022/07/16 05:59:05;;;;;;;17.85;6.00;;;;;;;;;;5129866;27;20054;-72
2022/07/16 06:01:35;;;;;;;14.10;6.32;;;;;;;;;;5130145;27;20074;-72
2022/07/16 06:04:04;;;;;;;9.48;5.70;;;;;;;;;;5129994;27;20509;-72
2022/07/16 06:06:34;;;;;;;9.13;5.18;;;;;;;;;;5130109;27;20043;-72
2022/07/16 06:09:04;;;;;;;13.25;5.07;;;;;;;;;;5130516;27;20145;-72
2022/07/16 06:11:34;;;;;;;13.27;4.68;;;;;;;;;;5129858;27;20054;-72
2022/07/16 06:14:04;;;;;;;7.00;4.55;;;;;;;;;;5129615;27;20426;-72
2022/07/16 06:16:34;;;;;;;14.50;5.13;;;;;;;;;;5129973;27;20051;-72
2022/07/16 06:19:04;;;;;;;13.77;5.35;;;;;;;;;;5128100;27;20055;-72
2022/07/16 06:21:34;;;;;;;10.75;5.45;;;;;;;;;;5129632;27;20043;-72
2022/07/16 06:24:04;;;;;;;8.57;4.93;;;;;;;;;;5127928;27;20525;-72
2022/07/16 06:26:34;;;;;;;9.50;4.40;;;;;;;;;;5129548;27;20047;-72
2022/07/16 06:29:04;;;;;;;11.48;5.32;;;;;;;;;;5129483;27;20047;-72
2022/07/16 06:31:33;;;;;;;13.75;4.57;;;;;;;;;;5130241;27;20047;-72
2022/07/16 06:34:03;;;;;;;8.77;4.35;;;;;;;;;;5128949;27;21141;-72
2022/07/16 06:36:33;;;;;;;19.45;5.47;;;;;;;;;;5129241;27;20616;-72
2022/07/16 06:39:04;;;;;;;10.25;5.22;;;;;;;;;;5129583;27;20066;-72
2022/07/16 06:41:37;;;;;;;10.02;4.97;;;;;;;;;;5129090;27;20047;-72
2022/07/16 06:44:09;;;;;;;10.40;4.53;;;;;;;;;;5129712;27;20375;-72
2022/07/16 06:46:39;;;;;;;19.45;5.10;;;;;;;;;;5128860;27;20054;-72
2022/07/16 06:49:09;;;;;;;12.25;5.05;;;;;;;;;;5129253;27;20517;-72
2022/07/16 06:51:39;;;;;;;10.85;4.85;;;;;;;;;;5128852;27;20048;-72
2022/07/16 06:54:08;;;;;;;10.45;4.65;;;;;;;;;;5128785;27;20050;-72
2022/07/16 06:56:38;;;;;;;8.80;4.45;;;;;;;;;;5128700;27;20047;-72
2022/07/16 06:59:08;;;;;;;;;;;;;;;;;;5128726;27;20062;-72
2022/07/16 07:01:37;;;;;;;6.32;3.83;;;;;;;;;;5127597;27;19919;-72
2022/07/16 07:04:07;;;;;;;;;;;;;;;;;;5129218;27;20381;-72
2022/07/16 07:06:36;;;;;;;6.65;4.15;;;;;;;;;;5128842;27;19959;-72
2022/07/16 07:09:06;;;;;;;7.70;4.72;;;;;;;;;;5128459;27;20050;-72
2022/07/16 07:11:36;;;;;;;7.80;4.55;;;;;;;;;;5128773;27;20478;-72
2022/07/16 07:14:06;;;;;;;9.10;4.00;;;;;;;;;;5129221;27;20047;-74
2022/07/16 07:16:37;;;;;;;11.93;4.38;;;;;;;;;;5128224;27;20045;-72
2022/07/16 07:19:08;;;;;;;6.05;3.90;;;;;;;;;;5128122;27;20054;-73
2022/07/16 07:21:38;;;;;;;8.05;4.85;;;;;;;;;;5128113;27;20043;-72
2022/07/16 07:24:08;;;;;;;6.82;4.15;;;;;;;;;;5128508;27;20039;-72
2022/07/16 07:26:58;;;;;;;9.43;3.88;;;;;;;;;;5128522;27;20478;-72
2022/07/16 07:29:28;;;;;;;12.05;4.50;;;;;;;;;;5128530;27;20047;-72
2022/07/16 07:31:58;;;;;;;10.05;3.85;;;;;;;;;;5128067;27;20486;-72
2022/07/16 07:34:27;;;;;;;10.02;4.57;;;;;;;;;;5128147;27;20051;-72
2022/07/16 07:36:58;;;;;;;8.98;3.88;;;;;;;;;;5127754;27;20043;-72
2022/07/16 07:39:27;;;;;;;4.63;3.45;;;;;;;;;;5126760;27;20715;-72
2022/07/16 07:41:57;;;;;;;6.38;4.43;;;;;;;;;;5128165;27;20110;-72
2022/07/16 07:44:27;;;;;;;10.98;4.28;;;;;;;;;;5126757;27;20055;-72
2022/07/16 07:46:57;;;;;;;8.30;3.88;;;;;;;;;;5128028;27;20398;-72
2022/07/16 07:49:27;;;;;;;;;;;;;;;;;;5127663;27;20043;-73
2022/07/16 07:52:01;;;;;;;9.50;3.70;;;;;;;;;;5127697;27;20291;-72
2022/07/16 07:54:31;;;;;;;5.47;3.53;;;;;;;;;;5127764;27;20078;-72
2022/07/16 07:57:01;;;;;;;10.93;4.20;;;;;;;;;;5127888;27;20054;-72
2022/07/16 07:59:31;;;;;;;7.93;4.18;;;;;;;;;;5127491;27;20043;-72
2022/07/16 08:02:01;;;;;;;11.63;3.92;;;;;;;;;;5127769;27;20046;-72
2022/07/16 08:04:33;;;;;;;;;;;;;;;;;;5127986;27;20066;-72
2022/07/16 08:07:03;;;;;;;7.40;3.72;;;;;;;;;;5127618;27;19934;-72
2022/07/16 08:09:33;;;;;;;6.93;3.75;;;;;;;;;;5127446;27;20479;-73
2022/07/16 08:12:03;;;;;;;8.77;3.75;;;;;;;;;;5126873;27;20047;-72
2022/07/16 08:14:33;;;;;;;6.82;3.45;;;;;;;;;;5128091;28;20047;-72
2022/07/16 08:17:03;;;;;;;11.57;3.33;;;;;;;;;;5126496;28;20414;-73
2022/07/16 08:19:34;;;;;;;10.93;4.05;;;;;;;;;;5127829;28;20662;-72
2022/07/16 08:22:05;;;;;;;4.50;3.75;;;;;;;;;;5127524;28;20074;-72
2022/07/16 08:27:23;;;;;;;7.47;3.70;;;;;;;;;;5127506;28;20070;-72
2022/07/16 08:29:53;;;;;;;9.00;3.22;;;;;;;;;;5127196;28;20043;-72
2022/07/16 08:32:24;;;;;;;7.22;3.35;;;;;;;;;;5127234;28;20054;-73
2022/07/16 08:34:54;;;;;;;4.60;3.20;;;;;;;;;;5127329;28;20540;-72
2022/07/16 08:37:37;;;;;;;6.78;2.95;;;;;;;;;;5126400;28;20061;-73
2022/07/16 08:40:13;;;;;;;4.63;3.40;;;;;;;;;;5127913;28;20054;-73
2022/07/16 08:42:44;;;;;;;10.00;3.20;;;;;;;;;;5127166;28;20047;-72
2022/07/16 08:45:15;;;;;;;6.97;3.45;;;;;;;;;;5127276;28;20074;-72
2022/07/16 08:47:46;;;;;;;10.00;3.20;;;;;;;;;;5127558;28;20054;-73
2022/07/16 08:50:16;;;;;;;10.88;3.30;;;;;;;;;;5126956;28;20490;-72
2022/07/16 08:52:54;;;;;;;6.35;3.38;;;;;;;;;;5127361;28;20090;-76
2022/07/16 08:55:28;;;;;;;6.68;3.25;;;;;;;;;;5127048;28;20070;-73
2022/07/16 08:58:00;;;;;;;10.55;3.40;;;;;;;;;;5126191;27;20039;-72
2022/07/16 09:00:29;;;;;;;12.65;3.85;;;;;;;;;;5126989;28;20047;-72
2022/07/16 09:02:59;;;;;;;9.15;3.55;;;;;;;;;;5127324;28;20054;-72
2022/07/16 09:05:29;;;;;;;8.38;4.30;;;;;;;;;;5127309;28;20512;-72
2022/07/16 09:07:59;;;;;;;11.27;3.40;;;;;;;;;;5127044;28;20051;-73
2022/07/16 09:10:37;;;;;;;11.30;5.25;;;;;;;;;;5127278;28;20043;-72
2022/07/16 09:13:10;;;;;;;9.52;4.18;;;;;;;;;;5126787;28;20050;-72
2022/07/16 09:15:42;;;;;;;12.68;4.57;;;;;;;;;;5127356;28;20043;-72
2022/07/16 09:18:24;;;;;;;15.43;4.32;;;;;;;;;;5126097;28;20487;-72
2022/07/16 09:20:55;;;;;;;11.80;3.75;;;;;;;;;;5126968;28;20051;-73
2022/07/16 09:23:30;;;;;;;14.35;5.00;;;;;;;;;;5129168;27;20520;-73
2022/07/16 09:26:10;;;;;;;15.13;4.63;;;;;;;;;;5130531;27;20051;-73
2022/07/16 09:28:47;;;;;;;12.63;4.32;;;;;;;;;;5130679;27;20054;-72
2022/07/16 09:31:37;;;;;;;10.30;4.10;;;;;;;;;;5131093;27;20039;-72
2022/07/16 09:34:11;;;;;;;7.30;4.72;;;;;;;;;;5130299;27;20062;-72
2022/07/16 09:36:56;;;;;;;6.35;5.07;;;;;;;;;;5130700;27;20043;-74
2022/07/16 09:39:28;;;;;;;16.17;9.68;;;;;;;;;;5130417;27;20054;-74
2022/07/16 09:41:58;;;;;;;18.35;8.70;;;;;;;;;;5129916;27;20502;-73
2022/07/16 09:44:33;;;;;;;25.30;13.15;;;;;;;;;;5128950;27;20513;-72
2022/07/16 09:47:06;;;;;;;22.88;11.73;;;;;;;;;;5130093;27;20047;-73
2022/07/16 09:49:50;;;;;;;27.90;16.33;;;;;;;;;;5129782;27;20035;-72
2022/07/16 09:52:34;;;;;;;28.13;17.15;;;;;;;;;;5130162;27;20047;-72
2022/07/16 09:55:05;;;;;;;28.52;18.50;;;;;;;;;;5128634;27;20058;-72
2022/07/16 09:57:36;;;;;;;29.25;18.67;;;;;;;;;;5129982;27;20031;-72
2022/07/16 10:00:07;;;;;;;31.35;18.95;;;;;;;;;;5129951;27;20070;-72
2022/07/16 10:02:41;;;;;;;34.38;18.67;;;;;;;;;;5133843;27;20039;-72
2022/07/16 10:05:11;;;;;;;31.30;17.90;;;;;;;;;;5130775;27;20047;-73
2022/07/16 10:07:41;;;;;;;;;;;;;;;;;;5130675;27;20047;-72
2022/07/16 10:10:12;;;;;;;34.40;19.00;;;;;;;;;;5129391;27;19977;-72
2022/07/16 10:12:42;;;;;;;26.40;16.88;;;;;;;;;;5129992;27;20047;-73
2022/07/16 10:15:12;;;;;;;29.55;17.60;;;;;;;;;;5129482;27;20047;-72
2022/07/16 10:17:41;;;;;;;34.85;17.50;;;;;;;;;;5129586;27;20047;-72
2022/07/16 10:20:17;;;;;;;29.42;18.63;;;;;;;;;;5129478;27;20050;-72
2022/07/16 10:22:48;;;;;;;;;;;;;;;;;;5129841;27;20047;-72
2022/07/16 10:25:25;;;;;;;39.50;22.25;;;;;;;;;;5129518;27;19919;-72
2022/07/16 10:27:55;;;;;;;38.70;24.38;;;;;;;;;;5127945;27;20055;-72
2022/07/16 10:30:30;;;;;;;41.03;24.17;;;;;;;;;;5129452;27;20046;-73
2022/07/16 10:33:05;;;;;;;34.40;21.05;;;;;;;;;;5128924;27;20050;-73
2022/07/16 10:35:37;;;;;;;37.22;21.85;;;;;;;;;;5128457;27;20047;-72
2022/07/16 10:38:27;;;;;;;36.38;20.88;;;;;;;;;;5129248;27;20073;-72
2022/07/16 10:41:10;;;;;;;28.67;17.75;;;;;;;;;;5128711;27;20050;-72
2022/07/16 10:43:40;;;;;;;28.75;17.52;;;;;;;;;;5127479;27;20418;-72
2022/07/16 10:46:24;;;;;;;33.65;17.98;;;;;;;;;;5128974;27;20049;-72
2022/07/16 10:48:59;;;;;;;32.15;19.02;;;;;;;;;;5129007;27;20042;-72
2022/07/16 10:51:29;;;;;;;33.92;17.27;;;;;;;;;;5129217;27;20047;-72
2022/07/16 10:54:01;;;;;;;38.65;17.75;;;;;;;;;;5128908;27;21148;-73
2022/07/16 10:56:36;;;;;;;29.25;17.80;;;;;;;;;;5128773;27;20419;-72
2022/07/16 10:59:10;;;;;;;29.90;18.90;;;;;;;;;;5127187;27;20140;-71
2022/07/16 11:01:42;;;;;;;26.02;16.33;;;;;;;;;;5128198;27;20047;-72
2022/07/16 11:04:13;;;;;;;30.25;18.30;;;;;;;;;;5128904;27;20054;-72
2022/07/16 11:06:50;;;;;;;33.70;20.05;;;;;;;;;;5128623;27;20070;-72
2022/07/16 11:09:31;;;;;;;38.50;19.67;;;;;;;;;;5128708;27;20058;-72
2022/07/16 11:12:17;;;;;;;44.17;20.08;;;;;;;;;;5128517;27;20047;-71
2022/07/16 11:14:50;;;;;;;34.80;20.05;;;;;;;;;;5128209;27;20058;-72
2022/07/16 11:17:26;;;;;;;34.72;18.23;;;;;;;;;;5128045;27;20050;-72
2022/07/16 11:19:59;;;;;;;26.30;18.58;;;;;;;;;;5128406;27;20046;-72
2022/07/16 11:22:31;;;;;;;39.75;18.67;;;;;;;;;;5128206;27;20058;-72
2022/07/16 11:25:05;;;;;;;25.40;15.00;;;;;;;;;;5128125;27;20051;-72
2022/07/16 11:27:37;;;;;;;31.75;17.90;;;;;;;;;;5128273;27;20051;-72
2022/07/16 11:30:10;;;;;;;27.25;18.08;;;;;;;;;;5127817;27;20043;-72
2022/07/16 11:32:44;;;;;;;34.83;18.63;;;;;;;;;;5128228;27;20051;-71
2022/07/16 11:35:15;;;;;;;32.70;20.60;;;;;;;;;;5127863;27;20039;-73
2022/07/16 11:37:56;;;;;;;36.50;20.08;;;;;;;;;;5128464;27;20035;-72
2022/07/16 11:40:38;;;;;;;36.03;18.55;;;;;;;;;;5128441;27;20494;-72
2022/07/16 11:43:08;;;;;;;32.90;18.42;;;;;;;;;;5127563;27;20051;-72
2022/07/16 11:45:45;;;;;;;37.33;20.65;;;;;;;;;;5127547;27;20055;-72
2022/07/16 11:48:19;;;;;;;39.53;19.80;;;;;;;;;;5127638;27;20050;-72
2022/07/16 11:50:52;;;;;;;29.25;17.17;;;;;;;;;;5127813;27;20042;-72
2022/07/16 11:53:36;;;;;;;34.40;20.13;;;;;;;;;;5128362;27;20043;-73
2022/07/16 11:56:07;;;;;;;33.13;19.83;;;;;;;;;;5127008;27;20093;-71
2022/07/16 11:58:37;;;;;;;30.88;18.42;;;;;;;;;;5127393;27;20653;-72
2022/07/16 12:01:07;;;;;;;32.35;19.08;;;;;;;;;;5127800;27;20043;-73
2022/07/16 12:03:37;;;;;;;34.47;19.50;;;;;;;;;;5127732;27;20050;-72
2022/07/16 12:06:08;;;;;;;33.20;18.90;;;;;;;;;;5126628;27;20517;-72
2022/07/16 12:08:54;;;;;;;34.65;18.10;;;;;;;;;;5127862;27;20043;-72
2022/07/16 12:11:31;;;;;;;19.55;13.30;;;;;;;;;;5127116;27;20039;-72
2022/07/16 12:14:02;;;;;;;22.20;13.48;;;;;;;;;;5126999;27;20801;-73
2022/07/16 12:16:33;;;;;;;25.25;15.23;;;;;;;;;;5127928;28;20691;-73
2022/07/16 12:19:12;;;;;;;25.15;14.90;;;;;;;;;;5127237;28;20496;-72
2022/07/16 12:21:47;;;;;;;19.42;12.93;;;;;;;;;;5127425;28;20532;-71
2022/07/16 12:24:29;;;;;;;15.80;11.35;;;;;;;;;;5126393;27;20055;-72
2022/07/16 12:26:59;;;;;;;33.35;19.38;;;;;;;;;;5127295;28;20051;-72
2022/07/16 12:29:39;;;;;;;35.70;17.50;;;;;;;;;;5126258;27;20051;-72
2022/07/16 12:32:09;;;;;;;13.73;10.40;;;;;;;;;;5127650;28;20043;-72
2022/07/16 12:34:43;;;;;;;19.33;11.27;;;;;;;;;;5126428;28;20046;-72
2022/07/16 12:37:14;;;;;;;19.85;11.50;;;;;;;;;;5127165;28;20047;-72
2022/07/16 12:39:44;;;;;;;23.70;10.15;;;;;;;;;;5126873;28;20398;-73
2022/07/16 12:42:15;;;;;;;19.92;10.90;;;;;;;;;;5126840;28;20051;-72
2022/07/16 12:44:46;;;;;;;17.95;9.35;;;;;;;;;;5127244;28;20434;-72
2022/07/16 12:47:15;;;;;;;19.42;8.68;;;;;;;;;;5127335;28;20051;-72
2022/07/16 12:49:46;;;;;;;9.35;6.40;;;;;;;;;;5127286;28;20051;-72
2022/07/16 12:52:17;;;;;;;9.57;6.53;;;;;;;;;;5127697;28;20035;-72
2022/07/16 13:00:37;;;;;;;;;;;;;;;;;;5131929;27;20043;-72
2022/07/16 13:03:07;;;;;;;15.38;5.82;;;;;;;;;;5130676;27;19923;-72
2022/07/16 13:05:37;;;;;;;12.27;7.47;;;;;;;;;;5131234;27;20051;-78
2022/07/16 13:08:07;;;;;;;17.63;10.02;;;;;;;;;;5131100;27;20047;-72
2022/07/16 13:10:38;;;;;;;15.70;10.20;;;;;;;;;;5130701;27;20047;-72
2022/07/16 13:13:08;;;;;;;15.50;10.27;;;;;;;;;;5131118;27;20490;-72
2022/07/16 13:15:38;;;;;;;16.85;9.27;;;;;;;;;;5130405;27;20395;-72
2022/07/16 13:18:07;;;;;;;14.73;11.02;;;;;;;;;;5129995;27;20058;-72
2022/07/16 13:20:37;;;;;;;19.65;10.48;;;;;;;;;;5130805;27;20057;-72
2022/07/16 13:23:07;;;;;;;16.95;10.65;;;;;;;;;;5130364;27;20422;-73
2022/07/16 13:25:40;;;;;;;16.27;10.48;;;;;;;;;;5130540;27;20506;-74
2022/07/16 13:28:11;;;;;;;17.27;10.63;;;;;;;;;;5130009;27;20050;-72
2022/07/16 13:30:41;;;;;;;15.45;8.82;;;;;;;;;;5130470;27;20050;-71
2022/07/16 13:33:11;;;;;;;16.38;9.98;;;;;;;;;;5130500;27;20050;-71
2022/07/16 13:35:42;;;;;;;13.95;9.13;;;;;;;;;;5130214;27;20047;-73
2022/07/16 13:38:12;;;;;;;19.00;10.95;;;;;;;;;;5129960;27;20058;-71
2022/07/16 13:40:42;;;;;;;14.98;7.13;;;;;;;;;;5130078;27;20047;-71
2022/07/16 13:43:16;;;;;;;12.70;7.38;;;;;;;;;;5130404;27;20047;-71
2022/07/16 13:45:48;;;;;;;8.57;6.20;;;;;;;;;;5130077;27;20055;-71
2022/07/16 13:48:19;;;;;;;9.38;5.68;;;;;;;;;;5130296;27;20051;-72
2022/07/16 13:50:49;;;;;;;8.85;5.60;;;;;;;;;;5130161;27;20047;-71
2022/07/16 13:53:19;;;;;;;10.43;5.85;;;;;;;;;;5130288;27;20051;-71
2022/07/16 13:55:49;;;;;;;7.03;5.25;;;;;;;;;;5128912;27;20059;-71
2022/07/16 13:58:22;;;;;;;5.57;3.67;;;;;;;;;;5130102;27;20054;-74
2022/07/16 14:00:55;;;;;;;5.95;4.05;;;;;;;;;;5130095;27;20043;-72
2022/07/16 14:03:27;;;;;;;5.20;3.70;;;;;;;;;;5130149;27;20047;-71
2022/07/16 14:06:01;;;;;;;11.98;4.30;;;;;;;;;;5130276;27;20435;-71
2022/07/16 14:08:32;;;;;;;6.75;4.20;;;;;;;;;;5129886;27;20058;-71
2022/07/16 14:11:02;;;;;;;5.93;3.78;;;;;;;;;;5129377;27;20043;-74
2022/07/16 14:13:32;;;;;;;6.80;3.42;;;;;;;;;;5129693;27;20058;-74
2022/07/16 14:16:01;;;;;;;5.18;3.25;;;;;;;;;;5129376;27;20051;-75
2022/07/16 14:18:31;;;;;;;7.20;2.92;;;;;;;;;;5129805;27;20746;-71
2022/07/16 14:21:01;;;;;;;8.35;3.60;;;;;;;;;;5129501;27;20039;-72
2022/07/16 14:23:31;;;;;;;4.53;2.72;;;;;;;;;;5129510;27;20414;-71
2022/07/16 14:26:01;;;;;;;7.28;2.80;;;;;;;;;;5129323;27;20051;-72
2022/07/16 14:28:31;;;;;;;4.78;2.15;;;;;;;;;;5128261;27;20421;-72
2022/07/16 14:31:03;;;;;;;5.70;3.15;;;;;;;;;;5129846;27;20051;-71
2022/07/16 14:33:33;;;;;;;6.47;3.08;;;;;;;;;;5129362;27;20039;-72
2022/07/16 14:36:03;;;;;;;4.40;2.67;;;;;;;;;;5129361;27;20054;-72
2022/07/16 14:38:32;;;;;;;4.30;2.50;;;;;;;;;;5129079;27;20059;-72
2022/07/16 14:41:03;;;;;;;7.95;2.88;;;;;;;;;;5129388;27;20043;-72
2022/07/16 14:43:33;;;;;;;3.85;2.38;;;;;;;;;;5128576;27;20089;-72
2022/07/16 14:46:03;;;;;;;4.65;2.65;;;;;;;;;;5128948;27;20047;-72
2022/07/16 14:48:33;;;;;;;3.78;2.50;;;;;;;;;;5128919;27;20494;-72
2022/07/16 14:51:06;;;;;;;5.38;2.25;;;;;;;;;;5128914;27;20047;-73
2022/07/16 14:53:37;;;;;;;4.88;3.15;;;;;;;;;;5128995;27;20042;-73
2022/07/16 14:56:07;;;;;;;3.88;2.20;;;;;;;;;;5128906;27;20070;-75
2022/07/16 14:58:37;;;;;;;7.00;2.47;;;;;;;;;;5128728;27;20055;-73
2022/07/16 15:01:07;;;;;;;6.63;2.38;;;;;;;;;;5128713;27;20047;-72
2022/07/16 15:03:37;;;;;;;3.58;2.67;;;;;;;;;;5129246;27;20497;-71
2022/07/16 15:06:07;;;;;;;4.07;2.40;;;;;;;;;;5128382;27;20047;-74
2022/07/16 15:08:37;;;;;;;5.20;2.97;;;;;;;;;;5128868;27;20051;-72